Logo AVAMET
Benvolgut visitant, si us plau, ingressa Recuperar contrasenya
AVAMET paisatges

Inforatge Dénia Madrigueres

Dades diàries. Acumulats / Últims 30 dies disponibles

Data Temperatura (°C) Humitat rel. (%) Pressió rel. (hPa) Vent (km/h) Precipitació
Mínima Mitjana Màxima Amplitud
tèrmica
Mínima Mitjana Màxima Mínima Mitjana Màxima Predom. Mitjana Ràfega
màxima
Total
(mm)
Índex-n
Mínima Mitjana Màxima Mínima Mitjana Màxima n
0 a 1
P0 max
mm 5'
Dades mensuals acumulades fins l'últim dia disponible
05/2020 13,6 17,1 20,9 21,6 20,3 26,8 32,5 18,9 27 67 95 1.002 1.016 1.028   5,2 40,2 17,8
Dades anuals acumulades fins l'últim dia disponible
2020 2,5 11,9 20,9 15,8 11,8 20,2 32,5 30,0 15 73 98 1.002 1.020 1.035   4,8 75,6 327,8
Últims 30 dies disponibles
24-05-2020 19,1     21,4     23,8 4,7 52 81 93 1.026 1.027 1.028 E 4,3 22,5 0,0
23-05-2020 17,7     25,4     32,5 14,8 27 49 80 1.022 1.024 1.026 SSE 4,2 27,4 0,0
22-05-2020 18,8     25,0     32,4 13,6 28 58 88 1.020 1.022 1.024 SSE 4,3 32,2 0,0
21-05-2020 19,1     24,1     31,1 12,0 30 68 94 1.017 1.019 1.021 E 5,6 30,6 0,0
20-05-2020 18,3     23,7     30,2 11,9 27 61 88 1.014 1.015 1.017 E 3,7 30,6 0,0
19-05-2020 15,3     24,0     30,6 15,3 32 57 93 1.015 1.017 1.021 SSE 3,2 22,5 0,0
18-05-2020 14,1     21,6     28,3 14,2 39 64 90 1.018 1.020 1.022 E 3,1 20,9 0,0
17-05-2020 15,8     19,0     23,6 7,8 57 75 93 1.019 1.021 1.022 E 3,5 30,6 7,4 0,67 2,40
16-05-2020 15,0     17,8     20,3 5,3 69 82 89 1.014 1.016 1.020 WNW 6,4 30,6 0,4
15-05-2020 13,6     18,0     21,1 7,5 53 72 85 1.010 1.012 1.015 NNW 3,7 20,9 0,0
14-05-2020 13,8     17,8     21,9 8,1 44 67 89 1.002 1.006 1.010 WNW 6,9 35,4 7,2 0,36 0,60
13-05-2020 15,7     20,2     25,0 9,3 42 56 84 1.005 1.006 1.008 WNW 6,9 29,0 0,0
12-05-2020 17,6     20,1     23,6 6,0 48 67 88 1.006 1.009 1.012 NNW 3,9 22,5 0,0
11-05-2020 18,9     22,6     27,8 8,9 31 46 57 1.007 1.008 1.011 WNW 10,0 40,2 0,0
10-05-2020 15,6     20,7     26,0 10,4 31 63 91 1.004 1.006 1.009 WNW 7,1 40,2 2,4
09-05-2020 17,5     20,8     26,4 8,9 58 78 92 1.008 1.012 1.016 WNW 5,0 32,2 0,0
08-05-2020 18,4     20,0     22,3 3,9 76 86 92 1.014 1.016 1.019 NNW 7,2 27,4 0,0
07-05-2020 17,2     20,2     24,2 7,0 50 83 94 1.017 1.018 1.020 NNW 3,5 19,3 0,0
06-05-2020 17,1     20,7     25,1 8,0 51 80 93 1.015 1.016 1.019 E 3,7 30,6 0,0
05-05-2020 16,4     21,6     29,4 13,0 38 76 95 1.013 1.014 1.016 E 2,6 24,1 0,2
04-05-2020 16,8     19,8     26,6 9,8 46 84 95 1.013 1.016 1.018 E 2,9 22,5 0,2
03-05-2020 18,3     22,8     27,9 9,6 35 63 93 1.016 1.018 1.020 NE 3,2 20,9 0,0
02-05-2020 20,9     26,5     31,8 10,9 30 45 61 1.016 1.018 1.020 WNW 9,0 33,8 0,0
01-05-2020 19,2     24,7     30,6 11,4 34 45 58 1.015 1.017 1.019 WNW 9,7 38,6 0,0
30-04-2020 19,9     23,0     27,7 7,8 33 45 55 1.014 1.016 1.018 O 9,4 43,5 0,0
29-04-2020 16,2     20,9     25,4 9,2 31 45 55 1.015 1.017 1.019 WNW 8,5 32,2 0,0
28-04-2020 15,8     19,9     24,7 8,9 35 51 66 1.013 1.014 1.016 WNW 8,2 32,2 0,0
27-04-2020 14,6     18,8     25,2 10,6 52 75 95 1.010 1.011 1.013 WNW 3,9 24,1 0,8
26-04-2020 11,8     16,8     21,2 9,4 55 79 95 1.010 1.011 1.013 E 3,9 25,7 0,6
25-04-2020 12,7     15,1     17,1 4,4 76 86 92 1.009 1.011 1.014 NNW 2,4 22,5 0,4
Últims 13 mesos disponibles
04/2020 9,3 13,1 19,9 16,2 15,4 19,8 27,7 18,4 45 77 96 1.006 1.016 1.026 E 5,2 43,5 69,6
03/2020 7,3 11,6 17,9 15,0 11,8 18,7 25,9 18,6 41 71 94 1.007 1.017 1.026 WNW 6,9 66,0 100,6
02/2020 6,7 10,7 15,2 15,5 15,1 21,1 26,6 19,9 41 70 86 1.014 1.025 1.033 E 2,9 40,2 1,0
01/2020 2,5 8,1 15,8 12,1 13,3 16,3 22,7 20,2 57 77 96 1.015 1.025 1.032 WNW 4,0 75,6 138,8
12/2019 6,4 11,2 19,7 14,5 13,8 18,4 25,5 19,1 50 72 91 1.004 1.016 1.033 WNW 5,0 66,0 129,6
11/2019 6,6 13,0 21,9 16,5 15,3 20,1 27,7 21,1 42 56 79 999 1.011 1.018 WNW 8,1 54,7 10,6
10/2019 11,6 16,7 21,4 20,9 16,9 25,1 34,1 22,5 45 70 87 1.008 1.016 1.022 SSO 3,6 41,8 81,6
09/2019 14,5 20,6 24,6 24,5 24,0 28,3 35,2 20,7 50 75 92 1.010 1.017 1.023 SSO 5,7 70,9 181,4
08/2019 19,6 23,0 27,1 27,3 27,1 32,0 39,8 20,2 50 69 83 1.010 1.015 1.020 S 5,8 48,3 39,0
07/2019 21,5 23,2 26,9 27,4 27,7 31,7 38,2 16,7 44 67 84 1.006 1.014 1.021 S 6,2 53,7 1,6
06/2019 13,9 18,5 22,9 23,2 20,9 27,8 37,7 23,8 36 65 86 1.009 1.015 1.022 SSE 6,6 55,6 0,0
05/2019 10,6 15,0 20,6 19,4 18,9 24,1 31,5 20,9 49 67 85 1.005 1.015 1.024 S 5,8 55,6 10,0
04/2019 10,1 12,3 16,7 16,0 14,9 20,2 28,8 18,7 41 68 96 1.000 1.013 1.025 SSO 7,1 56,3 282,0
Tots els anys disponibles
2019 1,9 15,0 27,1 19,2 12,1 23,5 39,8 37,9 28 67 96 996 1.017 1.033 S 5,7 70,9 785,6
2018 2,9 15,2 27,2 19,1 8,3 23,2 37,9 35,0 34 67 94 993 1.016 1.034 S 5,5 66,7 612,4
2017 3,3 15,8 27,2 20,0 12,4 24,3 37,1 33,8 30 69 94 998 1.018 1.035 S 3,2 61,1 453,0
Temperatura (°C)
Humitat relativa (%)
Velocitat del vent i ràfega màxima (km/h)
Direcció del vent (°)
Pressió (hPa)
Precipitació (mm)
Nota sobre les dades: s'avisa a l'usuari de la provisionalitat i no oficialitat d'aquestes dades
Logo AVAMET blanc
Web allotjada a Sollutia
Llicència de Creative CommonsLa web d'AVAMET i els seus continguts estan subjectes a una llicència de
Reconeixement - No Comercial - Compartir igual
Últimes estacions:  Chera (Ajuntament soci), Benifaió (Inforatge), Altea - Com. Regants (Soci) - - -